Time;durP1;ratioP1;P1;durP2;ratioP2;P2;SDS_P1;SDS_P2;PMS_P1;PMS_P2;Temp;Humidity;BMP_temperature;BMP_pressure;BME280_temperature;BME280_humidity;BME280_pressure;Samples;Min_cycle;Max_cycle;Signal;HPM_P1;HPM_P2
2022/12/13 00:00:56;;;;;;;19.30;10.80;;;;;;;;;;5028799;28;20289;-62
2022/12/13 00:03:24;;;;;;;19.00;11.50;;;;;;;;;;5026356;28;20219;-63
2022/12/13 00:05:53;;;;;;;17.37;10.83;;;;;;;;;;5026691;28;20324;-60
2022/12/13 00:08:20;;;;;;;18.43;10.87;;;;;;;;;;5024797;28;23095;-62
2022/12/13 00:10:58;;;;;;;15.60;9.67;;;;;;;;;;5030304;28;20209;-63
2022/12/13 00:13:25;;;;;;;17.73;10.00;;;;;;;;;;5030819;28;20218;-60
2022/12/13 00:16:00;;;;;;;18.40;10.33;;;;;;;;;;5028469;28;20318;-60
2022/12/13 00:18:28;;;;;;;14.43;10.23;;;;;;;;;;5032153;28;20306;-61
2022/12/13 00:20:55;;;;;;;18.47;10.63;;;;;;;;;;5044094;28;20211;-61
2022/12/13 00:23:23;;;;;;;13.97;9.87;;;;;;;;;;5027453;28;20300;-60
2022/12/13 00:25:50;;;;;;;14.40;9.23;;;;;;;;;;5044924;28;20322;-60
2022/12/13 00:28:18;;;;;;;13.93;9.53;;;;;;;;;;5047331;28;20278;-61
2022/12/13 00:30:46;;;;;;;13.83;9.83;;;;;;;;;;5047225;28;20646;-62
2022/12/13 00:33:13;;;;;;;22.03;10.73;;;;;;;;;;5043942;28;20201;-60
2022/12/13 00:35:41;;;;;;;17.83;9.67;;;;;;;;;;5031494;28;20340;-60
2022/12/13 00:38:09;;;;;;;17.53;10.40;;;;;;;;;;5026964;28;20226;-60
2022/12/13 00:40:36;;;;;;;15.67;9.80;;;;;;;;;;5027755;28;20961;-61
2022/12/13 00:43:04;;;;;;;15.10;9.90;;;;;;;;;;5025917;28;20505;-62
2022/12/13 00:45:32;;;;;;;12.80;9.03;;;;;;;;;;5045879;28;20236;-61
2022/12/13 00:48:00;;;;;;;16.90;9.90;;;;;;;;;;5030908;28;20219;-62
2022/12/13 00:50:27;;;;;;;17.37;9.43;;;;;;;;;;5027091;28;20206;-62
2022/12/13 00:52:55;;;;;;;16.60;10.03;;;;;;;;;;5032339;28;20232;-61
2022/12/13 00:55:22;;;;;;;16.90;9.83;;;;;;;;;;5030840;28;20230;-61
2022/12/13 00:57:50;;;;;;;16.07;9.07;;;;;;;;;;5048442;28;20280;-60
2022/12/13 01:00:18;;;;;;;13.43;8.57;;;;;;;;;;5039603;28;20197;-61
2022/12/13 01:02:45;;;;;;;14.87;9.07;;;;;;;;;;5079112;28;21073;-60
2022/12/13 01:05:13;;;;;;;14.23;8.50;;;;;;;;;;5053727;28;20288;-61
2022/12/13 01:07:53;;;;;;;12.07;8.60;;;;;;;;;;5062064;28;20209;-59
2022/12/13 01:10:21;;;;;;;14.43;8.17;;;;;;;;;;5070755;28;20203;-60
2022/12/13 01:12:48;;;;;;;14.77;8.43;;;;;;;;;;5046835;28;20293;-59
2022/12/13 01:15:16;;;;;;;15.07;9.07;;;;;;;;;;5033013;28;20699;-59
2022/12/13 01:17:46;;;;;;;14.03;8.83;;;;;;;;;;5026800;28;20209;-61
2022/12/13 01:20:13;;;;;;;16.23;8.97;;;;;;;;;;5046075;28;20230;-61
2022/12/13 01:22:40;;;;;;;11.03;7.13;;;;;;;;;;5050583;28;20670;-60
2022/12/13 01:25:08;;;;;;;11.90;8.17;;;;;;;;;;5038691;28;20671;-61
2022/12/13 01:27:35;;;;;;;11.03;7.43;;;;;;;;;;5065478;28;20606;-62
2022/12/13 01:30:02;;;;;;;11.37;7.43;;;;;;;;;;5063534;28;20329;-60
2022/12/13 01:32:30;;;;;;;12.00;7.37;;;;;;;;;;5036024;28;20249;-60
2022/12/13 01:34:57;;;;;;;10.67;7.20;;;;;;;;;;5048404;28;20245;-61
2022/12/13 01:37:24;;;;;;;10.20;6.90;;;;;;;;;;5026192;28;20220;-60
2022/12/13 01:39:53;;;;;;;10.30;6.97;;;;;;;;;;5031188;28;20217;-61
2022/12/13 01:42:24;;;;;;;13.50;7.57;;;;;;;;;;5028113;28;20209;-62
2022/12/13 01:44:58;;;;;;;12.53;7.13;;;;;;;;;;5026935;28;20248;-61
2022/12/13 01:47:35;;;;;;;10.73;6.90;;;;;;;;;;5046010;28;20233;-61
2022/12/13 01:50:08;;;;;;;11.37;6.83;;;;;;;;;;5025401;28;20227;-63
2022/12/13 01:52:36;;;;;;;11.93;7.43;;;;;;;;;;5040916;28;20839;-60
2022/12/13 01:55:06;;;;;;;11.37;7.10;;;;;;;;;;5040975;28;21016;-60
2022/12/13 01:57:34;;;;;;;9.37;7.13;;;;;;;;;;5032200;28;20204;-60
2022/12/13 02:00:06;;;;;;;15.97;8.60;;;;;;;;;;5049819;28;20701;-61
2022/12/13 02:02:34;;;;;;;11.53;6.90;;;;;;;;;;5045342;28;20293;-61
2022/12/13 02:05:08;;;;;;;10.63;6.87;;;;;;;;;;5047855;28;20217;-61
2022/12/13 02:07:36;;;;;;;13.27;6.77;;;;;;;;;;5048360;28;20205;-62
2022/12/13 02:10:05;;;;;;;10.67;7.23;;;;;;;;;;5031355;28;20321;-60
2022/12/13 02:12:34;;;;;;;11.93;7.23;;;;;;;;;;5025983;28;20212;-61
2022/12/13 02:15:13;;;;;;;9.67;6.30;;;;;;;;;;5029898;28;20217;-62
2022/12/13 02:17:59;;;;;;;10.03;6.97;;;;;;;;;;5028110;28;20208;-61
2022/12/13 02:20:36;;;;;;;11.77;5.93;;;;;;;;;;5047264;28;20212;-61
2022/12/13 02:23:13;;;;;;;11.13;6.47;;;;;;;;;;5026657;28;20205;-61
2022/12/13 02:25:46;;;;;;;9.37;5.33;;;;;;;;;;5027130;28;20229;-60
2022/12/13 02:28:26;;;;;;;8.13;5.57;;;;;;;;;;5030063;28;20208;-62
2022/12/13 03:41:17;;;;;;;10.23;7.27;;;;;;;;;;5035719;28;20646;-60
2022/12/13 03:43:45;;;;;;;12.50;7.67;;;;;;;;;;4967301;28;20824;-59
2022/12/13 03:46:12;;;;;;;10.80;7.57;;;;;;;;;;4968743;28;20204;-60
2022/12/13 03:48:40;;;;;;;12.83;7.30;;;;;;;;;;4978540;28;20211;-60
2022/12/13 03:51:07;;;;;;;11.77;7.30;;;;;;;;;;4998663;28;20271;-62
2022/12/13 03:53:34;;;;;;;10.33;7.07;;;;;;;;;;5013608;28;20662;-61
2022/12/13 03:56:03;;;;;;;11.60;6.73;;;;;;;;;;4986795;28;20208;-60
2022/12/13 03:58:31;;;;;;;9.47;6.47;;;;;;;;;;4994365;28;20203;-61
2022/12/13 04:01:07;;;;;;;9.43;6.90;;;;;;;;;;4987607;28;20232;-59
2022/12/13 04:03:35;;;;;;;8.53;7.00;;;;;;;;;;4985060;28;20208;-61
2022/12/13 04:06:03;;;;;;;9.50;6.13;;;;;;;;;;4982359;28;20204;-58
2022/12/13 04:08:30;;;;;;;8.30;6.00;;;;;;;;;;4985720;28;20262;-62
2022/12/13 04:10:57;;;;;;;10.27;6.57;;;;;;;;;;4985397;28;20236;-61
2022/12/13 04:13:34;;;;;;;14.80;6.87;;;;;;;;;;4982844;28;20663;-62
2022/12/13 04:16:02;;;;;;;9.13;6.50;;;;;;;;;;4985026;28;20267;-61
2022/12/13 04:18:30;;;;;;;8.87;6.00;;;;;;;;;;4966958;28;20263;-60
2022/12/13 04:20:57;;;;;;;11.50;6.87;;;;;;;;;;4980874;28;20267;-62
2022/12/13 04:23:24;;;;;;;10.80;7.53;;;;;;;;;;4986047;28;20211;-60
2022/12/13 04:25:51;;;;;;;12.77;6.60;;;;;;;;;;4985948;28;20323;-61
2022/12/13 04:28:19;;;;;;;28.07;14.57;;;;;;;;;;4985836;28;20220;-61
2022/12/13 04:30:49;;;;;;;25.77;13.10;;;;;;;;;;5015614;28;20319;-60
2022/12/13 04:33:21;;;;;;;44.40;19.03;;;;;;;;;;4997957;28;20224;-62
2022/12/13 04:35:49;;;;;;;119.87;46.10;;;;;;;;;;4986303;28;20215;-61
2022/12/13 04:38:16;;;;;;;40.03;20.53;;;;;;;;;;4987908;28;20243;-60
2022/12/13 04:40:43;;;;;;;12.30;8.50;;;;;;;;;;4977466;28;20232;-61
2022/12/13 04:43:11;;;;;;;9.43;7.10;;;;;;;;;;4974631;28;20323;-60
2022/12/13 04:45:38;;;;;;;10.90;7.30;;;;;;;;;;4965236;28;20598;-60
2022/12/13 04:48:05;;;;;;;12.33;8.47;;;;;;;;;;4969378;28;20735;-61
2022/12/13 04:50:33;;;;;;;11.97;7.10;;;;;;;;;;4969797;28;20264;-60
2022/12/13 04:53:00;;;;;;;9.90;6.67;;;;;;;;;;4963527;28;20209;-60
2022/12/13 04:55:28;;;;;;;8.60;6.70;;;;;;;;;;4963989;28;20271;-60
2022/12/13 04:57:55;;;;;;;10.80;7.63;;;;;;;;;;4963421;28;20208;-59
2022/12/13 05:00:22;;;;;;;10.27;6.57;;;;;;;;;;4965923;28;20430;-59
2022/12/13 05:02:50;;;;;;;9.10;6.53;;;;;;;;;;4974061;28;20347;-60
2022/12/13 05:05:17;;;;;;;11.70;7.77;;;;;;;;;;4965997;28;20541;-60
2022/12/13 05:07:45;;;;;;;12.20;7.83;;;;;;;;;;4962744;28;20212;-59
2022/12/13 05:10:12;;;;;;;11.50;7.20;;;;;;;;;;4962103;28;20480;-60
2022/12/13 05:12:59;;;;;;;11.23;7.70;;;;;;;;;;4961102;28;20365;-60
2022/12/13 05:15:29;;;;;;;14.23;8.33;;;;;;;;;;4960541;28;20657;-60
2022/12/13 05:18:03;;;;;;;12.97;7.87;;;;;;;;;;4959224;28;20215;-61
2022/12/13 05:20:37;;;;;;;7.97;6.37;;;;;;;;;;4956563;28;20664;-60
2022/12/13 05:23:05;;;;;;;13.87;7.20;;;;;;;;;;4946737;28;20221;-61
2022/12/13 05:25:35;;;;;;;11.57;7.97;;;;;;;;;;4965726;28;20252;-60
2022/12/13 05:28:03;;;;;;;11.70;7.83;;;;;;;;;;4959324;28;20221;-60
2022/12/13 05:30:51;;;;;;;10.50;7.97;;;;;;;;;;4970892;28;20699;-61
2022/12/13 05:33:18;;;;;;;12.37;7.83;;;;;;;;;;4974631;28;20751;-61
2022/12/13 05:35:46;;;;;;;10.27;7.43;;;;;;;;;;4971553;28;20631;-61
2022/12/13 05:38:14;;;;;;;14.70;8.67;;;;;;;;;;4969592;28;20239;-61
2022/12/13 05:40:42;;;;;;;12.93;8.10;;;;;;;;;;4973514;28;20287;-60
2022/12/13 05:43:13;;;;;;;20.57;10.63;;;;;;;;;;4982133;28;20296;-61
2022/12/13 05:45:48;;;;;;;48.23;18.60;;;;;;;;;;4971636;28;20311;-60
2022/12/13 05:48:17;;;;;;;20.67;10.63;;;;;;;;;;4972625;28;20241;-61
2022/12/13 05:50:51;;;;;;;10.03;7.33;;;;;;;;;;4967308;28;20330;-60
2022/12/13 05:53:36;;;;;;;10.57;7.80;;;;;;;;;;4970684;28;20214;-60
2022/12/13 05:56:04;;;;;;;16.53;9.60;;;;;;;;;;4968109;28;20209;-62
2022/12/13 05:58:31;;;;;;;10.03;7.40;;;;;;;;;;4978351;28;20231;-60
2022/12/13 06:01:10;;;;;;;10.63;7.63;;;;;;;;;;4971155;28;20264;-62
2022/12/13 06:03:37;;;;;;;12.63;8.63;;;;;;;;;;4971139;28;20217;-60
2022/12/13 06:06:05;;;;;;;12.23;7.80;;;;;;;;;;4970651;28;20237;-60
2022/12/13 06:08:33;;;;;;;12.83;8.30;;;;;;;;;;4968037;28;20346;-60
2022/12/13 06:11:02;;;;;;;22.23;8.93;;;;;;;;;;4968155;28;20232;-61
2022/12/13 06:13:42;;;;;;;12.03;8.47;;;;;;;;;;4970378;28;20204;-62
2022/12/13 06:16:12;;;;;;;11.17;7.93;;;;;;;;;;4970508;28;20207;-61
2022/12/13 06:18:50;;;;;;;10.53;8.03;;;;;;;;;;4971486;28;20209;-61
2022/12/13 06:21:25;;;;;;;11.07;7.23;;;;;;;;;;4964656;28;20236;-60
2022/12/13 06:23:52;;;;;;;13.97;8.17;;;;;;;;;;4963976;28;20248;-61
2022/12/13 06:26:20;;;;;;;13.33;8.13;;;;;;;;;;4970869;28;20254;-61
2022/12/13 06:28:47;;;;;;;10.93;7.70;;;;;;;;;;4970245;28;20299;-62
2022/12/13 06:31:15;;;;;;;11.37;8.07;;;;;;;;;;4970669;28;20260;-60
2022/12/13 06:33:42;;;;;;;13.83;8.17;;;;;;;;;;4972252;28;20288;-58
2022/12/13 06:36:10;;;;;;;13.40;8.40;;;;;;;;;;4984290;28;20284;-58
2022/12/13 06:38:38;;;;;;;11.67;8.23;;;;;;;;;;4971536;28;20582;-59
2022/12/13 06:41:14;;;;;;;12.87;8.03;;;;;;;;;;4970728;28;20234;-59
2022/12/13 06:43:42;;;;;;;12.73;7.67;;;;;;;;;;4968327;28;20964;-59
2022/12/13 06:46:10;;;;;;;12.73;8.70;;;;;;;;;;4970650;28;20217;-59
2022/12/13 06:48:39;;;;;;;14.67;8.93;;;;;;;;;;4978019;28;20221;-58
2022/12/13 06:51:07;;;;;;;13.37;7.70;;;;;;;;;;4965644;28;20758;-59
2022/12/13 06:53:36;;;;;;;13.57;8.63;;;;;;;;;;4973933;28;20247;-58
2022/12/13 06:56:05;;;;;;;11.10;8.23;;;;;;;;;;4970022;28;20755;-59
2022/12/13 06:58:32;;;;;;;11.57;8.17;;;;;;;;;;4969779;28;20293;-59
2022/12/13 07:01:07;;;;;;;13.50;7.63;;;;;;;;;;4966717;28;20275;-60
2022/12/13 07:03:50;;;;;;;9.63;7.17;;;;;;;;;;4966131;28;20697;-59
2022/12/13 07:06:19;;;;;;;11.20;7.47;;;;;;;;;;4995312;28;20291;-60
2022/12/13 07:08:53;;;;;;;13.40;8.13;;;;;;;;;;4968717;28;20294;-59
2022/12/13 07:11:23;;;;;;;16.40;8.23;;;;;;;;;;4969052;28;20629;-59
2022/12/13 07:13:50;;;;;;;12.47;8.13;;;;;;;;;;4982355;28;20240;-58
2022/12/13 07:16:17;;;;;;;14.87;9.00;;;;;;;;;;4969089;28;20739;-60
2022/12/13 07:18:45;;;;;;;14.40;9.40;;;;;;;;;;4969988;28;20295;-59
2022/12/13 07:21:14;;;;;;;12.37;8.57;;;;;;;;;;4969363;28;20349;-58
2022/12/13 07:23:49;;;;;;;14.27;9.73;;;;;;;;;;4987992;28;20216;-61
2022/12/13 07:26:22;;;;;;;14.03;8.93;;;;;;;;;;4975845;28;20641;-60
2022/12/13 07:28:49;;;;;;;13.87;9.17;;;;;;;;;;4962296;28;20224;-61
2022/12/13 07:31:22;;;;;;;14.80;9.13;;;;;;;;;;4968801;28;20237;-60
2022/12/13 07:33:50;;;;;;;13.17;8.77;;;;;;;;;;4969212;28;20211;-60
2022/12/13 07:36:19;;;;;;;12.77;8.57;;;;;;;;;;4956466;28;20248;-60
2022/12/13 07:38:53;;;;;;;13.87;9.27;;;;;;;;;;4970868;28;20736;-60
2022/12/13 07:41:22;;;;;;;13.80;8.53;;;;;;;;;;4971553;28;20278;-60
2022/12/13 07:43:51;;;;;;;16.83;9.60;;;;;;;;;;4969995;28;20264;-61
2022/12/13 07:46:22;;;;;;;15.43;8.93;;;;;;;;;;4973342;28;20285;-61
2022/12/13 07:49:03;;;;;;;14.67;8.27;;;;;;;;;;4991013;28;20278;-59
2022/12/13 07:51:33;;;;;;;15.27;8.80;;;;;;;;;;4976533;28;20241;-59
2022/12/13 07:54:00;;;;;;;14.90;9.50;;;;;;;;;;4976514;28;20647;-60
2022/12/13 07:56:33;;;;;;;15.20;9.23;;;;;;;;;;4977752;28;20239;-60
2022/12/13 07:59:03;;;;;;;12.47;8.53;;;;;;;;;;4988729;28;20573;-60
2022/12/13 08:01:33;;;;;;;13.07;8.17;;;;;;;;;;4972960;28;20232;-61
2022/12/13 08:04:01;;;;;;;19.23;9.60;;;;;;;;;;4965326;28;20213;-61
2022/12/13 08:06:28;;;;;;;16.97;9.53;;;;;;;;;;4969292;28;20252;-61
2022/12/13 08:08:56;;;;;;;15.27;9.20;;;;;;;;;;4969027;28;20213;-60
2022/12/13 08:11:24;;;;;;;15.17;8.50;;;;;;;;;;4982370;28;20708;-61
2022/12/13 08:13:53;;;;;;;14.53;9.00;;;;;;;;;;4977540;28;20200;-61
2022/12/13 08:16:21;;;;;;;15.37;9.37;;;;;;;;;;4970654;28;20715;-60
2022/12/13 08:18:56;;;;;;;12.60;8.40;;;;;;;;;;4972911;28;20273;-61
2022/12/13 08:21:35;;;;;;;14.00;8.57;;;;;;;;;;4972632;28;20802;-59
2022/12/13 08:24:23;;;;;;;18.33;8.73;;;;;;;;;;4973485;28;20209;-61
2022/12/13 08:26:51;;;;;;;16.50;9.10;;;;;;;;;;4971543;28;20253;-60
2022/12/13 08:29:19;;;;;;;15.37;9.07;;;;;;;;;;4971976;28;20249;-61
2022/12/13 08:32:00;;;;;;;14.33;8.13;;;;;;;;;;4964834;28;20700;-60
2022/12/13 08:34:28;;;;;;;14.00;8.73;;;;;;;;;;4976850;28;20209;-61
2022/12/13 08:36:55;;;;;;;17.23;9.60;;;;;;;;;;4972794;28;20242;-60
2022/12/13 08:39:29;;;;;;;14.23;9.60;;;;;;;;;;4973958;28;20213;-60
2022/12/13 08:42:01;;;;;;;19.60;10.80;;;;;;;;;;4970636;28;20237;-60
2022/12/13 08:44:48;;;;;;;14.37;8.37;;;;;;;;;;4971588;28;20239;-59
2022/12/13 08:47:16;;;;;;;14.37;9.10;;;;;;;;;;4969101;28;20217;-59
2022/12/13 08:49:51;;;;;;;13.20;8.43;;;;;;;;;;4953239;29;20213;-60
2022/12/13 08:52:20;;;;;;;13.03;8.03;;;;;;;;;;4954612;28;20247;-60
2022/12/13 08:54:47;;;;;;;13.03;8.47;;;;;;;;;;4972284;28;20205;-59
2022/12/13 08:57:15;;;;;;;14.87;8.97;;;;;;;;;;4972682;28;20205;-59
2022/12/13 08:59:42;;;;;;;13.97;8.83;;;;;;;;;;4971775;28;20252;-61
2022/12/13 09:02:11;;;;;;;15.60;9.13;;;;;;;;;;4971691;28;20308;-60
2022/12/13 09:04:39;;;;;;;17.43;9.47;;;;;;;;;;4973029;28;20213;-60
2022/12/13 09:07:06;;;;;;;21.00;10.13;;;;;;;;;;4972320;28;20287;-60
2022/12/13 09:09:34;;;;;;;19.47;10.40;;;;;;;;;;4972584;28;20251;-60
2022/12/13 09:12:03;;;;;;;19.87;10.07;;;;;;;;;;4972640;28;20568;-60
2022/12/13 09:14:51;;;;;;;16.17;8.87;;;;;;;;;;4972972;28;20347;-61
2022/12/13 09:17:29;;;;;;;18.97;9.60;;;;;;;;;;4972050;28;20565;-60
2022/12/13 09:20:03;;;;;;;21.93;10.80;;;;;;;;;;4972160;28;20257;-61
2022/12/13 09:22:53;;;;;;;14.30;9.37;;;;;;;;;;4990237;28;20446;-59
2022/12/13 09:25:28;;;;;;;13.83;8.90;;;;;;;;;;4978125;28;20244;-60
2022/12/13 09:28:05;;;;;;;16.73;9.90;;;;;;;;;;4978100;28;20212;-60
2022/12/13 09:30:32;;;;;;;14.77;8.90;;;;;;;;;;4971746;28;20735;-59
2022/12/13 09:32:59;;;;;;;14.93;9.23;;;;;;;;;;4969728;28;20244;-60
2022/12/13 09:35:47;;;;;;;15.67;8.47;;;;;;;;;;4976256;28;20208;-60
2022/12/13 09:38:14;;;;;;;15.90;8.67;;;;;;;;;;4975556;28;20289;-60
2022/12/13 09:40:44;;;;;;;15.67;8.20;;;;;;;;;;4971253;28;20327;-60
2022/12/13 09:43:26;;;;;;;16.43;9.20;;;;;;;;;;4968040;28;20245;-60
2022/12/13 09:46:00;;;;;;;13.40;8.47;;;;;;;;;;4965911;28;20244;-60
2022/12/13 09:48:28;;;;;;;13.83;8.33;;;;;;;;;;4975612;28;20691;-60
2022/12/13 09:51:00;;;;;;;17.17;9.97;;;;;;;;;;4966487;28;20242;-60
2022/12/13 09:53:50;;;;;;;13.63;8.73;;;;;;;;;;4953584;28;20301;-59
2022/12/13 09:56:22;;;;;;;14.37;8.97;;;;;;;;;;4972039;28;20244;-60
2022/12/13 09:58:51;;;;;;;12.90;8.27;;;;;;;;;;4972063;28;20236;-59
2022/12/13 10:01:19;;;;;;;13.73;8.37;;;;;;;;;;4970648;28;20322;-61
2022/12/13 10:03:51;;;;;;;12.97;8.43;;;;;;;;;;4971365;28;20331;-61
2022/12/13 10:06:23;;;;;;;11.37;7.20;;;;;;;;;;5019779;28;20239;-59
2022/12/13 10:08:54;;;;;;;12.23;7.53;;;;;;;;;;4974016;28;20243;-59
2022/12/13 10:11:25;;;;;;;13.63;8.13;;;;;;;;;;4987370;28;20238;-59
2022/12/13 10:13:58;;;;;;;12.60;7.57;;;;;;;;;;4985347;28;20205;-60
2022/12/13 10:16:33;;;;;;;15.77;7.97;;;;;;;;;;4971383;28;20204;-60
2022/12/13 10:19:23;;;;;;;15.37;7.97;;;;;;;;;;4974205;28;20222;-59
2022/12/13 10:21:55;;;;;;;12.00;7.23;;;;;;;;;;4970693;28;20317;-59
2022/12/13 10:24:29;;;;;;;15.03;8.33;;;;;;;;;;4968483;28;20209;-60
2022/12/13 10:27:13;;;;;;;10.67;7.37;;;;;;;;;;4992878;28;20219;-59
2022/12/13 10:30:00;;;;;;;15.30;9.53;;;;;;;;;;4978311;28;20643;-59
2022/12/13 10:32:27;;;;;;;13.10;8.20;;;;;;;;;;4970173;28;20264;-59
2022/12/13 10:34:55;;;;;;;10.63;7.50;;;;;;;;;;4970066;28;20247;-59
2022/12/13 10:37:23;;;;;;;11.07;7.70;;;;;;;;;;4970574;28;20277;-60
2022/12/13 10:39:51;;;;;;;12.80;7.40;;;;;;;;;;4969619;28;20386;-60
2022/12/13 10:42:19;;;;;;;10.60;7.77;;;;;;;;;;4963406;28;20685;-59
2022/12/13 10:45:10;;;;;;;11.07;7.80;;;;;;;;;;4965248;28;20215;-59
2022/12/13 10:47:38;;;;;;;12.43;7.70;;;;;;;;;;4955940;28;20295;-59
2022/12/13 10:50:05;;;;;;;10.40;6.70;;;;;;;;;;4970315;28;20306;-63
2022/12/13 10:52:34;;;;;;;11.33;7.37;;;;;;;;;;4970228;28;20845;-61
2022/12/13 10:55:28;;;;;;;10.80;7.23;;;;;;;;;;4970785;28;20208;-60
2022/12/13 10:58:08;;;;;;;13.00;7.50;;;;;;;;;;4971678;28;20197;-60
2022/12/13 11:00:44;;;;;;;11.83;7.60;;;;;;;;;;4970928;28;20312;-60
2022/12/13 11:03:29;;;;;;;10.60;7.50;;;;;;;;;;4975272;28;20207;-61
2022/12/13 11:06:14;;;;;;;10.97;7.07;;;;;;;;;;4971295;28;20205;-61
2022/12/13 11:08:41;;;;;;;11.67;8.10;;;;;;;;;;5002440;28;20355;-62
2022/12/13 11:11:11;;;;;;;10.07;7.20;;;;;;;;;;4970479;28;20676;-62
2022/12/13 11:13:41;;;;;;;11.33;7.30;;;;;;;;;;4965189;28;20616;-60
2022/12/13 11:16:18;;;;;;;10.63;7.10;;;;;;;;;;4967342;28;20201;-62
2022/12/13 11:18:50;;;;;;;10.80;7.10;;;;;;;;;;4970365;28;20299;-59
2022/12/13 11:21:22;;;;;;;10.73;6.70;;;;;;;;;;4977608;28;20783;-62
2022/12/13 11:23:50;;;;;;;10.47;7.33;;;;;;;;;;4964834;28;20216;-61
2022/12/13 11:26:20;;;;;;;12.30;7.73;;;;;;;;;;4970897;28;20750;-61
2022/12/13 11:29:09;;;;;;;11.50;7.20;;;;;;;;;;4969727;28;20208;-59
2022/12/13 11:31:46;;;;;;;11.30;7.43;;;;;;;;;;4968744;28;20228;-63
2022/12/13 11:34:16;;;;;;;13.40;7.73;;;;;;;;;;4968672;28;20212;-59
2022/12/13 11:36:51;;;;;;;12.07;8.10;;;;;;;;;;4967657;28;20209;-60
2022/12/13 11:39:37;;;;;;;13.20;8.30;;;;;;;;;;4962898;28;20220;-60
2022/12/13 11:42:19;;;;;;;10.17;7.73;;;;;;;;;;4963432;28;20264;-60
2022/12/13 11:44:49;;;;;;;14.00;8.93;;;;;;;;;;4966595;28;20312;-60
2022/12/13 11:47:27;;;;;;;14.60;8.20;;;;;;;;;;4960113;28;20213;-60
2022/12/13 11:49:56;;;;;;;13.73;8.40;;;;;;;;;;4952742;28;20295;-59
2022/12/13 11:52:26;;;;;;;11.90;7.77;;;;;;;;;;4966943;28;20241;-59
2022/12/13 11:54:57;;;;;;;13.30;8.53;;;;;;;;;;4961034;28;20252;-61
2022/12/13 11:57:32;;;;;;;13.20;8.50;;;;;;;;;;4994165;28;20233;-61
2022/12/13 12:00:18;;;;;;;13.27;8.00;;;;;;;;;;4968720;28;20255;-62
2022/12/13 12:03:21;;;;;;;14.77;9.27;;;;;;;;;;4976752;28;20286;-61
2022/12/13 12:05:51;;;;;;;16.40;8.43;;;;;;;;;;4973154;28;20223;-61
2022/12/13 12:08:41;;;;;;;16.60;8.50;;;;;;;;;;4971418;28;20211;-61
2022/12/13 12:11:27;;;;;;;12.07;8.10;;;;;;;;;;4963622;28;20326;-61
2022/12/13 12:13:58;;;;;;;12.83;8.10;;;;;;;;;;4986804;28;20239;-61
2022/12/13 12:16:28;;;;;;;19.57;10.83;;;;;;;;;;4973185;28;20291;-61
2022/12/13 12:18:56;;;;;;;12.80;7.07;;;;;;;;;;4972504;28;20261;-61
2022/12/13 12:21:47;;;;;;;12.20;7.83;;;;;;;;;;4959034;28;20270;-61
2022/12/13 12:24:43;;;;;;;10.53;7.77;;;;;;;;;;4972871;28;20696;-59
2022/12/13 12:27:30;;;;;;;16.30;9.33;;;;;;;;;;4972858;28;20687;-60
2022/12/13 12:30:08;;;;;;;19.30;11.13;;;;;;;;;;4977572;28;20239;-62
2022/12/13 12:32:50;;;;;;;19.67;11.70;;;;;;;;;;4968163;28;20325;-62
2022/12/13 12:35:18;;;;;;;19.17;10.40;;;;;;;;;;4975006;28;20242;-59
2022/12/13 12:38:04;;;;;;;21.33;11.40;;;;;;;;;;4973201;28;20679;-60
2022/12/13 12:40:38;;;;;;;22.60;10.77;;;;;;;;;;4971303;28;20977;-60
2022/12/13 12:43:33;;;;;;;19.57;10.60;;;;;;;;;;4971839;28;20306;-62
2022/12/13 12:46:13;;;;;;;14.83;8.57;;;;;;;;;;4984738;28;20210;-61
2022/12/13 12:49:08;;;;;;;14.33;8.90;;;;;;;;;;4992341;28;20217;-59
2022/12/13 12:52:06;;;;;;;16.30;7.87;;;;;;;;;;4973394;28;20665;-59
2022/12/13 12:55:01;;;;;;;16.33;8.73;;;;;;;;;;4903647;28;20234;-61
2022/12/13 12:57:38;;;;;;;14.37;8.20;;;;;;;;;;4989539;28;20731;-61
2022/12/13 13:00:08;;;;;;;12.67;8.67;;;;;;;;;;4980270;28;20216;-62
2022/12/13 13:02:54;;;;;;;12.20;7.57;;;;;;;;;;4977632;28;20251;-62
2022/12/13 13:05:40;;;;;;;13.13;7.07;;;;;;;;;;4981796;28;20212;-60
2022/12/13 13:08:10;;;;;;;10.50;7.20;;;;;;;;;;4980625;28;20216;-62
2022/12/13 13:10:38;;;;;;;10.87;7.40;;;;;;;;;;4972016;28;20227;-61
2022/12/13 13:13:29;;;;;;;12.40;7.60;;;;;;;;;;4972542;28;20273;-62
2022/12/13 13:16:00;;;;;;;12.63;7.77;;;;;;;;;;4962071;28;20256;-62
2022/12/13 13:18:43;;;;;;;10.50;6.93;;;;;;;;;;4971282;28;20214;-61
2022/12/13 13:21:23;;;;;;;9.97;6.97;;;;;;;;;;4952444;29;20278;-61
2022/12/13 13:24:09;;;;;;;12.27;7.60;;;;;;;;;;4952411;29;20221;-62
2022/12/13 13:26:43;;;;;;;11.50;7.83;;;;;;;;;;4952296;29;20293;-60
2022/12/13 13:29:20;;;;;;;12.63;7.50;;;;;;;;;;4965610;28;20640;-62
2022/12/13 13:32:00;;;;;;;10.33;7.10;;;;;;;;;;4964453;28;20324;-62
2022/12/13 13:34:32;;;;;;;13.63;7.43;;;;;;;;;;4970324;28;20215;-60
2022/12/13 13:36:59;;;;;;;10.27;7.30;;;;;;;;;;4966005;28;20666;-60
2022/12/13 13:39:33;;;;;;;12.90;8.00;;;;;;;;;;4971723;28;20269;-61
2022/12/13 13:42:06;;;;;;;11.00;7.07;;;;;;;;;;4971014;28;20730;-61
2022/12/13 13:44:53;;;;;;;11.90;7.40;;;;;;;;;;4971980;28;20259;-59
2022/12/13 13:47:23;;;;;;;12.40;7.97;;;;;;;;;;4972068;28;20702;-61
2022/12/13 13:50:03;;;;;;;10.53;7.90;;;;;;;;;;4979369;28;20272;-60
2022/12/13 13:52:37;;;;;;;12.03;8.53;;;;;;;;;;4985907;28;20229;-61
2022/12/13 13:55:10;;;;;;;12.10;8.33;;;;;;;;;;4971620;28;20285;-60
2022/12/13 13:57:56;;;;;;;13.00;7.87;;;;;;;;;;4971215;28;20249;-60
2022/12/13 14:00:55;;;;;;;10.50;6.83;;;;;;;;;;4959495;28;20287;-59
2022/12/13 14:03:41;;;;;;;13.23;7.40;;;;;;;;;;4971815;28;20210;-60
2022/12/13 14:06:23;;;;;;;12.00;8.47;;;;;;;;;;4972679;28;20215;-60
2022/12/13 14:08:59;;;;;;;14.30;8.63;;;;;;;;;;4965483;28;20301;-61
2022/12/13 14:11:42;;;;;;;14.70;8.63;;;;;;;;;;4972678;28;20239;-61
2022/12/13 14:14:12;;;;;;;11.67;8.07;;;;;;;;;;4969269;28;20399;-60
2022/12/13 14:16:48;;;;;;;12.03;7.50;;;;;;;;;;4957095;28;20216;-61
2022/12/13 14:19:34;;;;;;;13.87;8.17;;;;;;;;;;4972074;28;20908;-59
2022/12/13 14:22:23;;;;;;;11.77;8.33;;;;;;;;;;4967158;28;20843;-60
2022/12/13 14:25:01;;;;;;;14.00;8.50;;;;;;;;;;4970779;28;20213;-62
2022/12/13 14:27:47;;;;;;;12.37;8.43;;;;;;;;;;4974847;28;20204;-62
2022/12/13 14:30:16;;;;;;;11.47;8.07;;;;;;;;;;4974829;28;20224;-59
2022/12/13 14:32:54;;;;;;;12.33;8.40;;;;;;;;;;4964167;28;20720;-62
2022/12/13 14:35:24;;;;;;;14.90;8.83;;;;;;;;;;4977479;28;20204;-61
2022/12/13 14:38:01;;;;;;;16.27;8.97;;;;;;;;;;4970664;28;20233;-61
2022/12/13 14:40:31;;;;;;;12.03;8.47;;;;;;;;;;4966314;28;20236;-62
2022/12/13 14:42:59;;;;;;;13.67;8.43;;;;;;;;;;4970153;28;20672;-62
2022/12/13 14:45:30;;;;;;;12.03;7.77;;;;;;;;;;4970436;28;20751;-61
2022/12/13 14:47:58;;;;;;;16.70;8.17;;;;;;;;;;4982554;28;20212;-61
2022/12/13 14:50:27;;;;;;;13.63;8.20;;;;;;;;;;4972605;28;20236;-60
2022/12/13 14:52:56;;;;;;;11.60;8.13;;;;;;;;;;4970531;28;20264;-60
2022/12/13 14:55:25;;;;;;;15.20;8.63;;;;;;;;;;4970587;28;20204;-59
2022/12/13 14:57:57;;;;;;;13.80;9.73;;;;;;;;;;4970813;28;20250;-60
2022/12/13 15:00:26;;;;;;;14.30;9.60;;;;;;;;;;4968888;28;20272;-62
2022/12/13 15:02:55;;;;;;;14.47;8.83;;;;;;;;;;4968288;28;20216;-62
2022/12/13 15:05:31;;;;;;;14.87;8.87;;;;;;;;;;4963482;28;20235;-60
2022/12/13 15:07:58;;;;;;;14.70;9.43;;;;;;;;;;4964570;28;20292;-62
2022/12/13 15:10:37;;;;;;;9.47;7.50;;;;;;;;;;4967631;28;20286;-62
2022/12/13 15:13:04;;;;;;;15.30;8.93;;;;;;;;;;4978360;28;20319;-59
2022/12/13 15:15:33;;;;;;;11.17;8.23;;;;;;;;;;4968145;28;20288;-62
2022/12/13 15:18:15;;;;;;;12.00;8.13;;;;;;;;;;4985767;28;20266;-59
2022/12/13 15:20:44;;;;;;;14.30;9.47;;;;;;;;;;4969596;28;20236;-61
2022/12/13 15:23:14;;;;;;;15.33;9.93;;;;;;;;;;4959452;28;20287;-61
2022/12/13 15:25:42;;;;;;;14.07;8.93;;;;;;;;;;4969990;28;20212;-61
2022/12/13 15:28:13;;;;;;;13.97;8.77;;;;;;;;;;4969333;28;20267;-61
2022/12/13 15:30:46;;;;;;;14.77;9.57;;;;;;;;;;4950036;28;20240;-61
2022/12/13 15:33:21;;;;;;;14.13;9.47;;;;;;;;;;4962512;28;20653;-62
2022/12/13 15:36:16;;;;;;;20.33;12.27;;;;;;;;;;4959396;28;20209;-62
2022/12/13 15:38:55;;;;;;;91.33;37.80;;;;;;;;;;4958385;28;20285;-61
2022/12/13 15:41:35;;;;;;;36.33;19.87;;;;;;;;;;4960888;28;20311;-60
2022/12/13 15:44:05;;;;;;;23.07;13.93;;;;;;;;;;4956750;28;20244;-61
2022/12/13 15:46:36;;;;;;;17.87;10.70;;;;;;;;;;4966995;28;20216;-60
2022/12/13 15:49:04;;;;;;;18.53;10.53;;;;;;;;;;4969438;28;20249;-62
2022/12/13 15:51:31;;;;;;;18.77;9.73;;;;;;;;;;4970441;28;20278;-62
2022/12/13 15:54:22;;;;;;;17.73;10.27;;;;;;;;;;4970956;28;20212;-61
2022/12/13 15:56:55;;;;;;;16.70;10.37;;;;;;;;;;4969532;28;20328;-61
2022/12/13 15:59:24;;;;;;;16.60;10.67;;;;;;;;;;4977014;28;20290;-61
2022/12/13 16:01:52;;;;;;;15.13;10.57;;;;;;;;;;4975138;28;20235;-61
2022/12/13 16:04:25;;;;;;;16.83;10.80;;;;;;;;;;4969306;28;20300;-60
2022/12/13 16:06:54;;;;;;;15.20;10.33;;;;;;;;;;4969492;28;20289;-61
2022/12/13 16:09:23;;;;;;;21.50;12.13;;;;;;;;;;4976705;28;20291;-60
2022/12/13 16:12:00;;;;;;;18.50;12.37;;;;;;;;;;4988916;28;20267;-62